createdAt,value
2023-06-30T00:00:13.976Z,2.40
2023-06-30T00:03:07.256Z,2.60
2023-06-30T00:05:39.736Z,2.40
2023-06-30T00:08:12.740Z,2.20
2023-06-30T00:10:45.126Z,2.00
2023-06-30T00:13:17.690Z,1.80
2023-06-30T00:15:51.005Z,1.70
2023-06-30T00:18:25.682Z,1.70
2023-06-30T00:20:58.726Z,1.60
2023-06-30T00:23:32.001Z,2.10
2023-06-30T00:26:04.768Z,2.20
2023-06-30T00:28:38.336Z,2.00
2023-06-30T00:31:11.205Z,2.00
2023-06-30T00:33:43.644Z,1.80
2023-06-30T00:36:16.354Z,2.50
2023-06-30T00:38:51.189Z,2.50
2023-06-30T00:41:24.559Z,3.20
2023-06-30T00:43:57.167Z,1.80
2023-06-30T00:46:30.218Z,2.10
2023-06-30T00:49:03.418Z,2.10
2023-06-30T00:51:36.186Z,2.50
2023-06-30T00:54:09.121Z,2.10
2023-06-30T00:56:41.909Z,2.30
2023-06-30T00:59:14.551Z,1.70
2023-06-30T01:01:55.026Z,2.40
2023-06-30T01:04:37.636Z,1.90
2023-06-30T01:07:17.363Z,1.70
2023-06-30T01:09:55.149Z,1.70
2023-06-30T01:12:29.618Z,1.60
2023-06-30T01:15:04.090Z,1.90
2023-06-30T01:17:47.557Z,1.60
2023-06-30T01:20:22.428Z,2.60
2023-06-30T01:22:59.259Z,2.20
2023-06-30T01:25:32.997Z,2.30
2023-06-30T01:28:07.560Z,2.60
2023-06-30T01:30:41.411Z,2.10
2023-06-30T01:33:15.364Z,2.20
2023-06-30T01:35:48.233Z,2.70
2023-06-30T01:38:21.500Z,2.80
2023-06-30T01:40:54.495Z,2.50
2023-06-30T01:43:28.341Z,1.40
2023-06-30T01:46:01.331Z,2.80
2023-06-30T01:48:35.088Z,2.30
2023-06-30T01:51:11.209Z,2.90
2023-06-30T01:53:44.946Z,2.30
2023-06-30T01:56:17.705Z,2.60
2023-06-30T01:58:51.172Z,2.90
2023-06-30T02:01:24.417Z,2.80
2023-06-30T02:03:57.679Z,1.70
2023-06-30T02:06:30.657Z,2.70
2023-06-30T02:09:04.597Z,3.20
2023-06-30T02:11:37.291Z,2.30
2023-06-30T02:14:10.354Z,2.20
2023-06-30T02:16:45.029Z,2.00
2023-06-30T02:19:18.821Z,2.80
2023-06-30T02:21:52.135Z,2.40
2023-06-30T02:24:25.317Z,3.10
2023-06-30T02:26:59.037Z,2.30
2023-06-30T02:29:32.645Z,3.40
2023-06-30T02:32:06.278Z,4.00
2023-06-30T02:34:40.181Z,3.40
2023-06-30T02:37:13.764Z,3.70
2023-06-30T02:39:46.632Z,5.60
2023-06-30T02:42:19.372Z,3.90
2023-06-30T02:44:53.190Z,4.70
2023-06-30T02:47:26.210Z,3.30
2023-06-30T02:49:59.713Z,4.50
2023-06-30T02:52:32.953Z,3.60
2023-06-30T02:55:07.493Z,3.40
2023-06-30T02:57:40.780Z,3.10
2023-06-30T03:00:18.762Z,2.80
2023-06-30T03:02:52.318Z,2.40
2023-06-30T03:05:26.094Z,4.20
2023-06-30T03:07:59.529Z,2.40
2023-06-30T03:10:33.209Z,2.60
2023-06-30T03:13:07.502Z,4.20
2023-06-30T03:15:40.598Z,1.90
2023-06-30T03:18:14.314Z,2.10
2023-06-30T03:20:46.818Z,3.20
2023-06-30T03:23:20.309Z,3.00
2023-06-30T03:25:53.421Z,3.80
2023-06-30T03:28:27.423Z,2.30
2023-06-30T03:31:00.237Z,2.20
2023-06-30T03:33:33.350Z,3.00
2023-06-30T03:36:06.336Z,2.10
2023-06-30T03:38:38.916Z,3.90
2023-06-30T03:41:11.689Z,4.00
2023-06-30T03:43:44.492Z,3.80
2023-06-30T03:46:17.998Z,2.10
2023-06-30T03:48:51.497Z,2.70
2023-06-30T03:51:24.392Z,2.30
2023-06-30T03:53:58.677Z,3.50
2023-06-30T03:56:31.735Z,2.90
2023-06-30T03:59:04.954Z,3.10
2023-06-30T04:01:38.023Z,2.70
2023-06-30T04:04:12.060Z,2.30
2023-06-30T04:06:46.075Z,2.50
2023-06-30T04:09:18.875Z,2.80
2023-06-30T04:11:52.266Z,3.80
2023-06-30T04:14:24.797Z,2.70
2023-06-30T04:16:59.429Z,2.60
2023-06-30T04:19:32.197Z,3.60
2023-06-30T04:22:05.595Z,2.60
2023-06-30T04:24:38.642Z,2.80
2023-06-30T04:27:12.385Z,2.20
2023-06-30T04:29:44.928Z,3.30
2023-06-30T04:32:17.471Z,3.40
2023-06-30T04:34:50.278Z,1.70
2023-06-30T04:37:24.435Z,1.80
2023-06-30T04:39:57.198Z,1.80
2023-06-30T04:42:29.705Z,2.50
2023-06-30T04:45:02.369Z,2.80
2023-06-30T04:47:34.965Z,4.20
2023-06-30T04:50:09.013Z,3.20
2023-06-30T04:52:41.529Z,2.70
2023-06-30T04:55:14.191Z,2.40
2023-06-30T04:57:46.467Z,2.90
2023-06-30T05:00:20.052Z,2.00
2023-06-30T05:02:52.532Z,2.50
2023-06-30T05:05:25.813Z,3.70
2023-06-30T05:07:59.145Z,3.30
2023-06-30T05:10:32.821Z,2.80
2023-06-30T05:13:06.067Z,2.90
2023-06-30T05:15:39.025Z,2.30
2023-06-30T05:18:11.790Z,3.50
2023-06-30T05:20:44.354Z,2.90
2023-06-30T05:23:16.743Z,2.10
2023-06-30T05:25:49.105Z,4.00
2023-06-30T05:28:21.768Z,3.10
2023-06-30T05:30:54.379Z,3.00
2023-06-30T05:33:28.176Z,4.20
2023-06-30T05:36:00.530Z,3.00
2023-06-30T05:38:34.357Z,2.50
2023-06-30T05:41:06.731Z,2.40
2023-06-30T05:43:41.554Z,4.20
2023-06-30T05:46:15.110Z,2.80
2023-06-30T05:48:48.181Z,1.80
2023-06-30T05:51:21.371Z,3.40
2023-06-30T05:53:54.260Z,3.40
2023-06-30T05:56:26.615Z,2.70
2023-06-30T05:59:00.477Z,2.60
2023-06-30T06:01:33.369Z,2.40
2023-06-30T06:04:07.203Z,3.30
2023-06-30T06:06:40.885Z,1.80
2023-06-30T06:09:14.546Z,2.40
2023-06-30T06:11:48.080Z,2.10
2023-06-30T06:14:20.869Z,1.80
2023-06-30T06:16:53.414Z,3.30
2023-06-30T06:19:25.767Z,3.70
2023-06-30T06:21:58.224Z,1.50
2023-06-30T06:24:30.487Z,2.30
2023-06-30T06:27:02.926Z,2.60
2023-06-30T06:29:35.913Z,2.50
2023-06-30T06:32:09.898Z,2.30
2023-06-30T06:34:42.230Z,2.30
2023-06-30T06:37:14.597Z,2.70
2023-06-30T06:39:46.981Z,1.00
2023-06-30T06:42:19.235Z,0.60
2023-06-30T06:44:51.719Z,1.50
2023-06-30T06:47:58.939Z,1.30
2023-06-30T06:50:31.523Z,1.80
2023-06-30T06:53:04.107Z,1.60
2023-06-30T06:55:36.628Z,1.60
2023-06-30T06:58:09.577Z,2.00
2023-06-30T07:00:41.971Z,1.80
2023-06-30T07:03:14.270Z,1.50
2023-06-30T07:05:47.634Z,2.60
2023-06-30T07:08:21.359Z,2.00
2023-06-30T07:10:54.658Z,1.50
2023-06-30T07:13:27.282Z,3.80
2023-06-30T07:15:59.844Z,1.30
2023-06-30T07:18:33.899Z,1.60
2023-06-30T07:21:06.927Z,1.50
2023-06-30T07:23:39.155Z,2.70
2023-06-30T07:26:11.963Z,1.20
2023-06-30T07:28:44.554Z,1.40
2023-06-30T07:31:17.153Z,0.90
2023-06-30T07:33:49.534Z,0.60
2023-06-30T07:36:22.024Z,1.10
2023-06-30T07:38:54.525Z,1.60
2023-06-30T07:41:27.128Z,1.80
2023-06-30T07:44:00.437Z,1.50
2023-06-30T07:46:35.368Z,1.20
2023-06-30T07:49:07.934Z,1.00
2023-06-30T07:51:40.572Z,1.70
2023-06-30T07:54:13.002Z,1.50
2023-06-30T07:56:46.885Z,0.90
2023-06-30T07:59:19.121Z,1.10
2023-06-30T08:01:51.760Z,1.30
2023-06-30T08:04:24.420Z,1.80
2023-06-30T08:06:56.926Z,0.90
2023-06-30T08:09:29.187Z,1.90
2023-06-30T08:12:01.803Z,1.50
2023-06-30T08:14:34.634Z,1.80
2023-06-30T08:17:07.225Z,0.90
2023-06-30T08:19:47.976Z,0.60
2023-06-30T08:22:22.466Z,1.40
2023-06-30T08:24:56.224Z,1.40
2023-06-30T08:27:28.451Z,1.70
2023-06-30T08:30:00.748Z,1.40
2023-06-30T08:32:33.133Z,1.10
2023-06-30T08:35:05.577Z,1.40
2023-06-30T08:37:37.953Z,1.10
2023-06-30T08:40:13.400Z,0.70
2023-06-30T08:42:51.496Z,1.40
2023-06-30T08:45:25.916Z,1.20
2023-06-30T08:48:02.140Z,1.80
2023-06-30T08:50:35.506Z,1.10
2023-06-30T08:53:08.692Z,1.20
2023-06-30T08:55:42.044Z,1.40
2023-06-30T08:58:25.652Z,1.30
2023-06-30T09:00:59.007Z,2.70
2023-06-30T09:03:32.979Z,1.80
2023-06-30T09:06:05.641Z,1.00
2023-06-30T09:08:48.608Z,0.80
2023-06-30T09:11:22.269Z,0.70
2023-06-30T09:14:02.200Z,0.80
2023-06-30T09:16:35.200Z,0.80
2023-06-30T09:19:08.066Z,0.50
2023-06-30T09:21:41.163Z,1.30
2023-06-30T09:24:13.827Z,0.90
2023-06-30T09:26:46.465Z,0.90
2023-06-30T09:29:23.489Z,1.50
2023-06-30T09:32:02.342Z,1.10
2023-06-30T09:34:34.838Z,0.30
2023-06-30T09:37:12.437Z,0.60
2023-06-30T09:39:51.622Z,0.80
2023-06-30T09:42:24.562Z,1.10
2023-06-30T09:44:57.833Z,0.60
2023-06-30T09:47:31.749Z,1.80
2023-06-30T09:50:04.430Z,0.70
2023-06-30T09:52:38.795Z,1.10
2023-06-30T09:55:13.509Z,0.70
2023-06-30T09:57:47.384Z,0.90
2023-06-30T10:00:33.913Z,1.00
2023-06-30T10:03:10.010Z,0.60
2023-06-30T10:05:42.716Z,0.70
2023-06-30T10:08:16.086Z,1.40
2023-06-30T10:10:48.975Z,1.20
2023-06-30T10:13:23.473Z,0.80
2023-06-30T10:15:56.426Z,0.60
2023-06-30T10:18:29.095Z,0.50
2023-06-30T10:21:01.514Z,1.00
2023-06-30T10:23:35.827Z,1.00
2023-06-30T10:26:10.071Z,0.80
2023-06-30T10:28:42.547Z,0.90
2023-06-30T10:31:14.959Z,1.40
2023-06-30T10:33:47.634Z,1.30
2023-06-30T10:36:20.940Z,1.40
2023-06-30T10:38:55.288Z,1.50
2023-06-30T10:41:27.717Z,0.80
2023-06-30T10:44:13.436Z,0.80
2023-06-30T10:46:48.477Z,1.90
2023-06-30T10:49:28.860Z,1.20
2023-06-30T10:52:04.848Z,1.10
2023-06-30T10:54:44.350Z,0.80
2023-06-30T10:57:21.008Z,0.80
2023-06-30T11:00:07.973Z,1.00
2023-06-30T11:02:48.574Z,0.80
2023-06-30T11:05:27.304Z,0.70
2023-06-30T11:08:08.687Z,1.10
2023-06-30T11:10:46.659Z,1.00
2023-06-30T11:13:37.539Z,1.50
2023-06-30T11:16:11.262Z,1.10
2023-06-30T11:18:45.752Z,0.80
2023-06-30T11:21:18.148Z,1.30
2023-06-30T11:23:51.842Z,0.80
2023-06-30T11:26:25.686Z,1.20
2023-06-30T11:28:58.160Z,1.10
2023-06-30T11:31:38.127Z,1.20
2023-06-30T11:34:10.670Z,1.40
2023-06-30T11:36:42.872Z,1.00
2023-06-30T11:39:17.873Z,1.60
2023-06-30T11:41:50.157Z,1.20
2023-06-30T11:44:22.624Z,1.60
2023-06-30T11:46:58.644Z,1.20
2023-06-30T11:49:36.449Z,1.30
2023-06-30T11:52:10.324Z,0.90
2023-06-30T11:54:43.639Z,0.90
2023-06-30T11:57:15.928Z,1.00
2023-06-30T11:59:50.329Z,1.20
2023-06-30T12:02:22.760Z,0.70
2023-06-30T12:04:55.641Z,1.60
2023-06-30T12:07:28.214Z,0.70
2023-06-30T12:10:07.509Z,0.60
2023-06-30T12:12:40.075Z,1.50
2023-06-30T12:15:15.988Z,0.80
2023-06-30T12:17:48.736Z,1.60
2023-06-30T12:20:32.064Z,1.20
2023-06-30T12:23:05.406Z,0.60
2023-06-30T12:25:38.789Z,1.50
2023-06-30T12:28:13.972Z,0.80
2023-06-30T12:30:47.790Z,1.00
2023-06-30T12:33:24.504Z,1.40
2023-06-30T12:35:56.794Z,1.00
2023-06-30T12:38:29.326Z,1.00
2023-06-30T12:41:01.841Z,0.80
2023-06-30T12:43:35.042Z,0.60
2023-06-30T12:46:07.872Z,1.30
2023-06-30T12:48:40.155Z,1.80
2023-06-30T12:51:12.518Z,2.20
2023-06-30T12:53:44.804Z,1.10
2023-06-30T12:56:17.648Z,1.30
2023-06-30T12:58:50.248Z,1.10
2023-06-30T13:01:22.637Z,1.10
2023-06-30T13:03:55.098Z,2.00
2023-06-30T13:06:27.786Z,1.10
2023-06-30T13:09:00.222Z,0.70
2023-06-30T13:11:32.921Z,1.10
2023-06-30T13:14:05.118Z,1.10
2023-06-30T13:16:38.008Z,1.00
2023-06-30T13:19:11.841Z,1.20
2023-06-30T13:21:44.114Z,1.10
2023-06-30T13:24:16.356Z,2.20
2023-06-30T13:26:48.601Z,1.20
2023-06-30T13:29:20.926Z,1.00
2023-06-30T13:31:53.398Z,0.80
2023-06-30T13:34:26.269Z,1.10
2023-06-30T13:36:58.540Z,2.40
2023-06-30T13:39:31.119Z,1.20
2023-06-30T13:42:03.985Z,3.10
2023-06-30T13:44:37.908Z,1.60
2023-06-30T13:47:10.429Z,1.10
2023-06-30T13:49:42.634Z,1.20
2023-06-30T13:52:15.074Z,1.00
2023-06-30T13:54:47.249Z,1.30
2023-06-30T13:57:20.366Z,0.70
2023-06-30T13:59:53.274Z,1.10
2023-06-30T14:02:25.576Z,1.10
2023-06-30T14:04:59.438Z,1.70
2023-06-30T14:07:32.258Z,1.10
2023-06-30T14:10:05.683Z,0.90
2023-06-30T14:12:38.084Z,2.00
2023-06-30T14:15:12.335Z,1.10
2023-06-30T14:17:44.488Z,1.00
2023-06-30T14:20:17.019Z,1.00
2023-06-30T14:22:49.356Z,1.50
2023-06-30T14:25:24.185Z,0.70
2023-06-30T14:27:56.552Z,1.30
2023-06-30T14:30:33.297Z,0.80
2023-06-30T14:33:05.945Z,1.20
2023-06-30T14:35:38.155Z,1.10
2023-06-30T14:38:10.448Z,1.60
2023-06-30T14:40:43.022Z,1.70
2023-06-30T14:43:15.374Z,0.90
2023-06-30T14:45:48.004Z,1.40
2023-06-30T14:48:20.617Z,1.30
2023-06-30T14:50:52.843Z,1.30
2023-06-30T14:53:25.339Z,2.60
2023-06-30T14:55:58.940Z,1.30
2023-06-30T14:58:31.216Z,1.20
2023-06-30T15:01:03.732Z,1.90
2023-06-30T15:03:37.041Z,1.20
2023-06-30T15:06:09.223Z,1.80
2023-06-30T15:08:42.004Z,1.40
2023-06-30T15:11:14.345Z,1.20
2023-06-30T15:13:46.726Z,1.30
2023-06-30T15:16:19.316Z,0.70
2023-06-30T15:18:51.715Z,0.80
2023-06-30T15:21:24.176Z,1.10
2023-06-30T15:23:56.507Z,1.10
2023-06-30T15:26:29.593Z,1.70
2023-06-30T15:29:02.050Z,1.60
2023-06-30T15:31:34.530Z,1.40
2023-06-30T15:34:06.802Z,1.10
2023-06-30T15:36:39.025Z,2.50
2023-06-30T15:39:11.635Z,1.30
2023-06-30T15:41:45.880Z,1.10
2023-06-30T15:44:18.208Z,1.30
2023-06-30T15:46:51.185Z,0.80
2023-06-30T15:49:23.904Z,1.60
2023-06-30T15:51:56.464Z,1.30
2023-06-30T15:54:28.849Z,1.50
2023-06-30T15:57:01.107Z,1.30
2023-06-30T15:59:33.420Z,2.10
2023-06-30T16:02:07.775Z,0.70
2023-06-30T16:04:39.983Z,1.10
2023-06-30T16:07:12.432Z,1.20
2023-06-30T16:09:44.784Z,1.90
2023-06-30T16:12:17.545Z,1.60
2023-06-30T16:14:49.794Z,1.70
2023-06-30T16:17:22.237Z,1.30
2023-06-30T16:19:54.495Z,1.40
2023-06-30T16:22:26.703Z,1.30
2023-06-30T16:24:59.036Z,1.20
2023-06-30T16:27:31.322Z,1.60
2023-06-30T16:30:24.944Z,1.50
2023-06-30T16:33:00.192Z,1.20
2023-06-30T16:35:34.565Z,1.60
2023-06-30T16:38:07.390Z,0.80
2023-06-30T16:40:39.891Z,1.70
2023-06-30T16:43:12.196Z,0.90
2023-06-30T16:45:44.964Z,1.20
2023-06-30T16:48:17.653Z,1.80
2023-06-30T16:50:50.087Z,1.30
2023-06-30T16:53:23.555Z,1.60
2023-06-30T16:55:57.326Z,1.30
2023-06-30T16:58:31.117Z,1.10
2023-06-30T17:01:03.540Z,1.50
2023-06-30T17:03:35.959Z,1.20
2023-06-30T17:06:08.539Z,1.60
2023-06-30T17:08:40.996Z,2.60
2023-06-30T17:11:13.384Z,1.40
2023-06-30T17:13:45.897Z,1.40
2023-06-30T17:16:18.210Z,1.10
2023-06-30T17:18:50.691Z,1.10
2023-06-30T17:21:22.957Z,2.00
2023-06-30T17:23:55.305Z,2.10
2023-06-30T17:26:27.692Z,2.20
2023-06-30T17:28:59.730Z,1.70
2023-06-30T17:31:32.230Z,1.40
2023-06-30T17:34:05.047Z,1.00
2023-06-30T17:36:37.838Z,1.70
2023-06-30T17:39:10.150Z,2.00
2023-06-30T17:41:42.797Z,2.70
2023-06-30T17:44:15.078Z,2.00
2023-06-30T17:46:47.331Z,1.40
2023-06-30T17:49:28.451Z,1.80
2023-06-30T17:52:00.919Z,1.80
2023-06-30T17:54:33.809Z,2.10
2023-06-30T17:57:06.744Z,2.30
2023-06-30T17:59:38.908Z,3.10
2023-06-30T18:02:11.481Z,3.50
2023-06-30T18:04:43.859Z,2.30
2023-06-30T18:07:16.141Z,3.10
2023-06-30T18:09:48.748Z,1.60
2023-06-30T18:12:21.655Z,1.90
2023-06-30T18:14:53.979Z,4.30
2023-06-30T18:17:26.362Z,3.00
2023-06-30T18:19:58.690Z,3.50
2023-06-30T18:22:31.154Z,2.50
2023-06-30T18:25:03.561Z,4.10
2023-06-30T18:27:35.966Z,2.90
2023-06-30T18:30:10.233Z,3.50
2023-06-30T18:32:42.931Z,3.00
2023-06-30T18:35:15.398Z,2.70
2023-06-30T18:37:47.635Z,5.10
2023-06-30T18:40:19.882Z,3.20
2023-06-30T18:42:52.525Z,3.10
2023-06-30T18:45:25.016Z,2.70
2023-06-30T18:47:57.487Z,3.20
2023-06-30T18:50:29.897Z,4.10
2023-06-30T18:53:02.161Z,3.00
2023-06-30T18:55:34.687Z,3.60
2023-06-30T18:58:06.989Z,3.20
2023-06-30T19:00:39.265Z,4.10
2023-06-30T19:03:15.709Z,2.90
2023-06-30T19:05:48.848Z,3.00
2023-06-30T19:08:21.524Z,3.50
2023-06-30T19:10:53.723Z,3.90
2023-06-30T19:13:26.402Z,4.30
2023-06-30T19:15:58.640Z,4.70
2023-06-30T19:18:31.039Z,3.20
2023-06-30T19:21:03.667Z,3.10
2023-06-30T19:23:37.380Z,3.10
2023-06-30T19:26:09.917Z,5.30
2023-06-30T19:28:44.554Z,4.00
2023-06-30T19:31:17.229Z,4.10
2023-06-30T19:33:49.828Z,2.90
2023-06-30T19:36:22.472Z,4.90
2023-06-30T19:38:54.691Z,4.60
2023-06-30T19:41:28.104Z,4.70
2023-06-30T19:44:00.635Z,5.00
2023-06-30T19:46:34.646Z,3.30
2023-06-30T19:49:07.783Z,4.60
2023-06-30T19:51:40.378Z,3.40
2023-06-30T19:54:13.857Z,4.00
2023-06-30T19:56:46.213Z,5.00
2023-06-30T19:59:19.113Z,5.70
2023-06-30T20:01:55.958Z,3.90
2023-06-30T20:04:29.720Z,3.70
2023-06-30T20:07:02.050Z,3.60
2023-06-30T20:09:35.157Z,4.50
2023-06-30T20:12:08.914Z,3.90
2023-06-30T20:14:41.221Z,4.30
2023-06-30T20:17:13.472Z,5.50
2023-06-30T20:19:46.240Z,6.80
2023-06-30T20:22:18.770Z,6.10
2023-06-30T20:24:51.300Z,9.20
2023-06-30T20:27:23.674Z,10.40
2023-06-30T20:29:56.782Z,7.50
2023-06-30T20:32:29.191Z,5.60
2023-06-30T20:35:01.471Z,6.90
2023-06-30T20:37:33.764Z,6.90
2023-06-30T20:40:08.615Z,7.70
2023-06-30T20:42:41.072Z,7.70
2023-06-30T20:45:13.653Z,7.10
2023-06-30T20:47:46.004Z,6.30
2023-06-30T20:50:18.513Z,8.70
2023-06-30T20:52:50.836Z,7.30
2023-06-30T20:55:23.375Z,7.60
2023-06-30T20:57:55.996Z,8.70
2023-06-30T21:00:29.101Z,6.70
2023-06-30T21:03:01.503Z,9.50
2023-06-30T21:05:34.143Z,7.40
2023-06-30T21:08:06.825Z,7.30
2023-06-30T21:10:39.063Z,8.00
2023-06-30T21:13:11.290Z,8.00
2023-06-30T21:15:43.726Z,8.60
2023-06-30T21:18:16.973Z,7.80
2023-06-30T21:20:49.595Z,10.20
2023-06-30T21:23:22.044Z,6.90
2023-06-30T21:25:55.015Z,7.50
2023-06-30T21:28:27.321Z,7.70
2023-06-30T21:31:01.987Z,6.80
2023-06-30T21:33:34.400Z,6.60
2023-06-30T21:36:07.262Z,6.80
2023-06-30T21:38:40.095Z,8.30
2023-06-30T21:41:12.592Z,6.90
2023-06-30T21:43:45.110Z,6.70
2023-06-30T21:46:18.623Z,6.70
2023-06-30T21:48:51.299Z,6.10
2023-06-30T21:51:23.587Z,6.40
2023-06-30T21:53:57.030Z,5.30
2023-06-30T21:56:29.285Z,6.00
2023-06-30T21:59:03.062Z,6.40
2023-06-30T22:01:41.325Z,5.50
2023-06-30T22:04:14.523Z,5.50
2023-06-30T22:06:48.466Z,5.60
2023-06-30T22:09:20.851Z,5.90
2023-06-30T22:11:53.142Z,5.10
2023-06-30T22:14:26.094Z,6.50
2023-06-30T22:16:58.671Z,5.40
2023-06-30T22:19:31.022Z,3.60
2023-06-30T22:22:03.719Z,4.90
2023-06-30T22:24:36.119Z,7.10
2023-06-30T22:27:09.503Z,5.20
2023-06-30T22:29:41.906Z,6.60
2023-06-30T22:32:15.605Z,5.30
2023-06-30T22:34:49.427Z,6.40
2023-06-30T22:37:22.042Z,4.80
2023-06-30T22:39:54.497Z,6.30
2023-06-30T22:42:26.797Z,5.20
2023-06-30T22:44:59.178Z,4.70
2023-06-30T22:47:31.499Z,4.00
2023-06-30T22:50:03.967Z,5.70
2023-06-30T22:52:36.423Z,5.70
2023-06-30T22:55:09.940Z,4.70
2023-06-30T22:57:42.211Z,5.50
2023-06-30T23:00:16.896Z,5.30
2023-06-30T23:02:49.418Z,5.70
2023-06-30T23:05:22.583Z,5.30
2023-06-30T23:07:54.994Z,5.10
2023-06-30T23:10:27.260Z,5.60
2023-06-30T23:12:59.802Z,4.10
2023-06-30T23:15:32.261Z,4.20
2023-06-30T23:18:06.680Z,4.60
2023-06-30T23:20:39.004Z,4.80
2023-06-30T23:23:11.585Z,7.10
2023-06-30T23:25:43.945Z,5.70
2023-06-30T23:28:19.210Z,5.00
2023-06-30T23:30:52.078Z,6.40
2023-06-30T23:33:24.860Z,5.00
2023-06-30T23:35:57.140Z,8.00
2023-06-30T23:38:29.367Z,6.50
2023-06-30T23:41:01.637Z,6.10
2023-06-30T23:43:34.003Z,9.00
2023-06-30T23:46:06.496Z,12.50
2023-06-30T23:48:38.829Z,9.70
2023-06-30T23:51:11.328Z,10.20
2023-06-30T23:53:43.588Z,10.30
2023-06-30T23:56:15.927Z,10.50
2023-06-30T23:58:48.362Z,10.10
